createdAt,value
2022-08-08T00:01:08.952Z,93.74
2022-08-08T00:06:13.839Z,94.17
2022-08-08T00:11:17.469Z,93.28
2022-08-08T00:16:20.863Z,93.43
2022-08-08T00:21:25.486Z,93.12
2022-08-08T00:26:36.698Z,94.47
2022-08-08T00:32:28.388Z,94.09
2022-08-08T00:37:16.329Z,93.96
2022-08-08T00:43:25.031Z,93.64
2022-08-08T00:49:25.149Z,93.89
2022-08-08T00:55:16.689Z,94.05
2022-08-08T01:00:13.570Z,95.10
2022-08-08T01:05:58.594Z,94.14
2022-08-08T01:12:04.277Z,93.25
2022-08-08T01:17:53.922Z,92.99
2022-08-08T01:24:05.529Z,93.05
2022-08-08T01:29:59.878Z,94.19
2022-08-08T01:35:40.655Z,94.20
2022-08-08T01:40:46.461Z,93.04
2022-08-08T01:45:56.689Z,92.89
2022-08-08T01:51:29.784Z,93.14
2022-08-08T01:56:53.273Z,92.08
2022-08-08T02:02:09.733Z,90.76
2022-08-08T02:07:22.557Z,92.07
2022-08-08T02:12:26.033Z,91.42
2022-08-08T02:17:36.502Z,91.62
2022-08-08T02:22:55.080Z,92.64
2022-08-08T02:28:01.187Z,92.68
2022-08-08T02:34:00.595Z,91.94
2022-08-08T02:39:41.124Z,92.66
2022-08-08T02:45:51.827Z,93.11
2022-08-08T02:52:32.791Z,92.73
2022-08-08T02:58:09.968Z,93.57
2022-08-08T03:05:03.068Z,92.46
2022-08-08T03:10:32.940Z,93.50
2022-08-08T03:16:34.324Z,91.77
2022-08-08T03:21:40.715Z,93.09
2022-08-08T03:27:11.201Z,93.29
2022-08-08T03:32:23.525Z,93.53
2022-08-08T03:38:54.499Z,92.67
2022-08-08T03:42:40.066Z,93.84
2022-08-08T03:47:45.948Z,93.53
2022-08-08T03:52:45.075Z,94.11
2022-08-08T03:58:31.500Z,90.17
2022-08-08T04:03:02.304Z,90.61
2022-08-08T04:07:58.432Z,90.56
2022-08-08T04:12:56.198Z,93.73
2022-08-08T04:17:59.045Z,91.29
2022-08-08T04:22:52.861Z,93.80
2022-08-08T04:28:34.485Z,94.17
2022-08-08T04:33:05.421Z,93.77
2022-08-08T04:38:01.483Z,93.19
2022-08-08T04:43:00.833Z,94.79
2022-08-08T04:47:55.091Z,93.13
2022-08-08T04:53:01.019Z,94.34
2022-08-08T04:57:59.284Z,91.33
2022-08-08T05:02:53.262Z,91.51
2022-08-08T05:07:46.906Z,90.55
2022-08-08T05:12:53.515Z,91.14
2022-08-08T05:17:54.756Z,89.84
2022-08-08T05:22:50.318Z,89.83
2022-08-08T05:27:46.505Z,89.24
2022-08-08T05:32:41.078Z,91.52
2022-08-08T05:37:53.460Z,91.33
2022-08-08T05:43:03.435Z,92.67
2022-08-08T05:48:18.040Z,93.42
2022-08-08T05:54:24.790Z,92.85
2022-08-08T05:58:57.169Z,93.18
2022-08-08T06:04:08.435Z,89.86
2022-08-08T06:10:00.267Z,89.79
2022-08-08T06:14:26.431Z,86.44
2022-08-08T06:19:24.116Z,85.15
2022-08-08T06:24:23.088Z,86.32
2022-08-08T06:29:56.923Z,81.45
2022-08-08T06:34:57.706Z,76.47
2022-08-08T06:40:16.568Z,78.46
2022-08-08T06:45:12.818Z,76.04
2022-08-08T06:50:08.334Z,76.03
2022-08-08T06:55:08.369Z,70.56
2022-08-08T07:00:12.313Z,73.54
2022-08-08T07:05:12.047Z,70.75
2022-08-08T07:10:13.887Z,73.13
2022-08-08T07:15:32.094Z,73.51
2022-08-08T07:20:32.174Z,69.25
2022-08-08T07:25:32.062Z,72.95
2022-08-08T07:30:26.518Z,68.34
2022-08-08T07:35:20.973Z,66.96
2022-08-08T07:40:21.111Z,64.40
2022-08-08T07:45:26.443Z,65.05
2022-08-08T07:50:27.874Z,64.10
2022-08-08T07:55:28.751Z,62.05
2022-08-08T08:00:25.194Z,63.91
2022-08-08T08:05:26.232Z,63.59
2022-08-08T08:10:33.333Z,60.86
2022-08-08T08:15:32.359Z,61.27
2022-08-08T08:20:30.919Z,60.67
2022-08-08T08:25:43.823Z,61.13
2022-08-08T08:30:40.185Z,58.04
2022-08-08T08:36:17.768Z,57.62
2022-08-08T08:40:48.584Z,59.02
2022-08-08T08:45:45.260Z,57.44
2022-08-08T08:50:41.149Z,56.73
2022-08-08T08:55:39.993Z,56.52
2022-08-08T09:01:02.774Z,54.78
2022-08-08T09:05:54.854Z,56.25
2022-08-08T09:10:51.078Z,54.83
2022-08-08T09:15:44.796Z,53.32
2022-08-08T09:22:02.958Z,55.75
2022-08-08T09:26:04.811Z,55.82
2022-08-08T09:31:12.515Z,52.88
2022-08-08T09:36:08.038Z,50.66
2022-08-08T09:41:07.496Z,50.06
2022-08-08T09:46:03.664Z,53.07
2022-08-08T09:50:58.108Z,52.19
2022-08-08T09:56:04.851Z,52.84
2022-08-08T10:01:15.565Z,47.82
2022-08-08T10:06:19.779Z,48.30
2022-08-08T10:12:27.249Z,48.80
2022-08-08T10:16:41.924Z,46.97
2022-08-08T10:21:42.297Z,46.05
2022-08-08T10:26:59.326Z,47.30
2022-08-08T10:33:00.118Z,46.76
2022-08-08T10:37:57.682Z,45.83
2022-08-08T10:42:56.925Z,46.35
2022-08-08T10:54:21.627Z,44.78
2022-08-08T10:59:21.752Z,43.54
2022-08-08T11:04:17.717Z,44.86
2022-08-08T11:09:23.543Z,44.06
2022-08-08T11:14:16.954Z,45.34
2022-08-08T11:19:18.574Z,46.57
2022-08-08T11:24:18.894Z,45.81
2022-08-08T11:41:36.475Z,42.97
2022-08-08T12:00:29.069Z,41.25
2022-08-08T12:05:58.060Z,42.15
2022-08-08T12:10:54.243Z,41.20
2022-08-08T12:17:36.131Z,41.22
2022-08-08T12:35:18.276Z,43.16
2022-08-08T13:00:20.369Z,43.06
2022-08-08T13:38:05.401Z,44.42
2022-08-08T13:42:53.524Z,43.89
2022-08-08T13:48:03.922Z,42.17
2022-08-08T13:53:25.078Z,42.72
2022-08-08T13:58:38.786Z,45.34
2022-08-08T14:10:37.532Z,44.81
2022-08-08T14:16:16.743Z,45.14
2022-08-08T14:21:20.797Z,43.39
2022-08-08T14:26:28.343Z,44.05
2022-08-08T14:32:06.104Z,44.34
2022-08-08T14:36:53.264Z,44.98
2022-08-08T14:49:01.600Z,45.52
2022-08-08T14:54:28.321Z,46.08
2022-08-08T15:06:20.485Z,45.69
2022-08-08T15:10:56.808Z,41.69
2022-08-08T15:16:11.755Z,45.97
2022-08-08T15:21:16.210Z,43.45
2022-08-08T15:26:53.201Z,42.24
2022-08-08T15:32:18.947Z,43.23
2022-08-08T15:37:17.194Z,43.36
2022-08-08T15:42:17.948Z,41.95
2022-08-08T15:47:40.179Z,43.01
2022-08-08T15:52:54.966Z,42.25
2022-08-08T15:57:51.057Z,42.42
2022-08-08T16:02:51.235Z,43.96
2022-08-08T16:08:01.396Z,42.60
2022-08-08T16:13:32.384Z,42.50
2022-08-08T16:18:28.273Z,41.78
2022-08-08T16:23:33.855Z,42.96
2022-08-08T16:28:52.529Z,44.19
2022-08-08T16:33:59.215Z,42.68
2022-08-08T16:39:59.981Z,44.59
2022-08-08T16:44:38.169Z,42.88
2022-08-08T16:55:03.608Z,46.28
2022-08-08T16:57:01.521Z,44.18
2022-08-08T17:08:03.903Z,42.94
2022-08-08T17:13:06.591Z,44.65
2022-08-08T17:25:28.481Z,45.85
2022-08-08T17:31:39.454Z,45.64
2022-08-08T17:42:33.674Z,44.56
2022-08-08T17:47:40.972Z,46.08
2022-08-08T17:52:38.294Z,45.45
2022-08-08T17:58:03.587Z,46.00
2022-08-08T18:03:13.214Z,45.67
2022-08-08T18:08:24.204Z,46.53
2022-08-08T18:14:05.873Z,47.20
2022-08-08T18:19:21.296Z,47.55
2022-08-08T18:24:18.875Z,45.56
2022-08-08T18:29:15.426Z,46.20
2022-08-08T18:34:25.699Z,47.35
2022-08-08T18:39:28.348Z,47.07
2022-08-08T18:44:22.518Z,49.13
2022-08-08T18:49:22.690Z,49.24
2022-08-08T18:54:24.744Z,49.46
2022-08-08T18:59:24.568Z,51.20
2022-08-08T19:04:27.879Z,53.57
2022-08-08T19:09:23.297Z,54.30
2022-08-08T19:14:37.787Z,54.98
2022-08-08T19:19:31.645Z,54.68
2022-08-08T19:24:42.467Z,54.88
2022-08-08T19:29:42.528Z,56.26
2022-08-08T19:34:41.637Z,56.99
2022-08-08T19:39:36.325Z,56.29
2022-08-08T19:44:45.536Z,58.73
2022-08-08T19:49:43.570Z,60.30
2022-08-08T19:54:59.538Z,60.65
2022-08-08T20:00:11.272Z,61.80
2022-08-08T20:06:14.323Z,62.35
2022-08-08T20:10:37.593Z,62.75
2022-08-08T20:15:59.981Z,63.16
2022-08-08T20:20:45.909Z,64.55
2022-08-08T20:25:39.195Z,64.88
2022-08-08T20:30:35.639Z,65.28
2022-08-08T20:35:58.511Z,68.00
2022-08-08T20:40:57.528Z,70.02
2022-08-08T20:45:58.155Z,71.86
2022-08-08T20:50:58.275Z,71.63
2022-08-08T20:55:51.964Z,73.08
2022-08-08T21:00:45.700Z,73.90
2022-08-08T21:05:59.123Z,75.39
2022-08-08T21:10:54.302Z,75.68
2022-08-08T21:16:04.971Z,75.25
2022-08-08T21:21:01.147Z,76.64
2022-08-08T21:25:57.853Z,77.16
2022-08-08T21:30:52.101Z,77.68
2022-08-08T21:36:18.415Z,77.87
2022-08-08T21:41:00.629Z,78.13
2022-08-08T21:48:05.916Z,77.53
2022-08-08T21:51:11.327Z,76.93
2022-08-08T21:56:27.037Z,77.89
2022-08-08T22:01:28.159Z,78.82
2022-08-08T22:06:34.206Z,79.56
2022-08-08T22:12:02.237Z,81.76
2022-08-08T22:16:47.905Z,81.61
2022-08-08T22:21:46.856Z,80.37
2022-08-08T22:27:01.585Z,81.72
2022-08-08T22:32:01.753Z,80.51
2022-08-08T22:36:56.066Z,81.46
2022-08-08T22:41:50.866Z,81.21
2022-08-08T22:46:45.681Z,80.24
2022-08-08T22:51:42.503Z,80.86
2022-08-08T22:56:39.654Z,80.77
2022-08-08T23:02:01.834Z,81.00
2022-08-08T23:06:47.917Z,79.65
2022-08-08T23:12:28.022Z,82.57
2022-08-08T23:17:10.956Z,81.71
2022-08-08T23:22:06.607Z,80.94
2022-08-08T23:27:01.479Z,82.01
2022-08-08T23:31:55.335Z,81.11
2022-08-08T23:36:57.873Z,80.91
2022-08-08T23:41:51.479Z,81.40
2022-08-08T23:49:03.020Z,81.34
2022-08-08T23:52:05.956Z,80.21
2022-08-08T23:57:00.775Z,81.16
